createdAt,value
2017-10-09T00:00:23.344Z,28.5
2017-10-09T00:01:23.409Z,28.5
2017-10-09T00:02:23.319Z,28.5
2017-10-09T00:03:23.537Z,28.5
2017-10-09T00:04:23.935Z,28.5
2017-10-09T00:05:23.647Z,28.5
2017-10-09T00:06:23.701Z,28.5
2017-10-09T00:07:23.763Z,28.5
2017-10-09T00:08:23.805Z,28.5
2017-10-09T00:09:23.849Z,28.4
2017-10-09T00:10:23.934Z,28.5
2017-10-09T00:11:23.905Z,28.5
2017-10-09T00:12:23.953Z,28.5
2017-10-09T00:13:23.792Z,28.5
2017-10-09T00:14:24.017Z,28.5
2017-10-09T00:15:23.956Z,28.5
2017-10-09T00:16:24.323Z,28.5
2017-10-09T00:17:24.059Z,28.5
2017-10-09T00:18:24.299Z,28.4
2017-10-09T00:19:24.112Z,28.5
2017-10-09T00:20:24.156Z,28.4
2017-10-09T00:21:24.464Z,28.4
2017-10-09T00:22:24.679Z,28.5
2017-10-09T00:23:24.276Z,28.5
2017-10-09T00:24:24.318Z,28.4
2017-10-09T00:25:24.545Z,28.4
2017-10-09T00:26:24.385Z,28.4
2017-10-09T00:27:24.634Z,28.4
2017-10-09T00:28:24.735Z,28.5
2017-10-09T00:29:24.732Z,28.5
2017-10-09T00:30:24.721Z,28.4
2017-10-09T00:31:24.750Z,28.5
2017-10-09T00:32:24.842Z,28.5
2017-10-09T00:33:24.879Z,28.5
2017-10-09T00:34:25.223Z,28.4
2017-10-09T00:35:24.993Z,28.4
2017-10-09T00:36:25.057Z,28.4
2017-10-09T00:37:24.870Z,28.4
2017-10-09T00:38:25.165Z,28.4
2017-10-09T00:39:25.116Z,28.4
2017-10-09T00:40:25.186Z,28.4
2017-10-09T00:41:24.974Z,28.4
2017-10-09T00:42:25.219Z,28.4
2017-10-09T00:43:25.248Z,28.4
2017-10-09T00:44:25.068Z,28.4
2017-10-09T00:45:25.339Z,28.4
2017-10-09T00:46:25.655Z,28.4
2017-10-09T00:47:25.224Z,28.4
2017-10-09T00:48:25.291Z,28.4
2017-10-09T00:49:25.309Z,28.4
2017-10-09T00:50:25.363Z,28.4
2017-10-09T00:51:25.414Z,28.4
2017-10-09T00:52:25.700Z,28.4
2017-10-09T00:53:25.617Z,28.4
2017-10-09T00:54:25.539Z,28.4
2017-10-09T00:55:25.637Z,28.4
2017-10-09T00:56:25.892Z,28.4
2017-10-09T00:57:25.713Z,28.4
2017-10-09T00:58:26.210Z,28.4
2017-10-09T00:59:26.023Z,28.4
2017-10-09T01:00:27.034Z,28.4
2017-10-09T01:01:26.137Z,28.4
2017-10-09T01:02:26.175Z,28.4
2017-10-09T01:03:26.018Z,28.4
2017-10-09T01:04:26.524Z,28.4
2017-10-09T01:05:26.357Z,28.4
2017-10-09T01:06:26.195Z,28.4
2017-10-09T01:07:26.347Z,28.4
2017-10-09T01:08:26.480Z,28.4
2017-10-09T01:09:26.468Z,28.4
2017-10-09T01:10:26.888Z,28.4
2017-10-09T01:11:26.608Z,28.4
2017-10-09T01:12:26.623Z,28.4
2017-10-09T01:13:26.639Z,28.4
2017-10-09T01:14:26.500Z,28.4
2017-10-09T01:15:26.748Z,28.4
2017-10-09T01:16:26.818Z,28.4
2017-10-09T01:17:26.594Z,28.4
2017-10-09T01:18:26.855Z,28.4
2017-10-09T01:19:26.666Z,28.4
2017-10-09T01:20:26.959Z,28.4
2017-10-09T01:21:26.720Z,28.4
2017-10-09T01:22:27.290Z,28.4
2017-10-09T01:23:26.831Z,28.4
2017-10-09T01:24:26.885Z,28.4
2017-10-09T01:25:26.952Z,28.4
2017-10-09T01:26:27.007Z,28.4
2017-10-09T01:27:27.288Z,28.4
2017-10-09T01:28:27.593Z,28.3
2017-10-09T01:29:27.190Z,28.4
2017-10-09T01:30:27.253Z,28.4
2017-10-09T01:31:27.498Z,28.4
2017-10-09T01:32:27.319Z,28.3
2017-10-09T01:33:27.595Z,28.4
2017-10-09T01:34:27.861Z,28.4
2017-10-09T01:35:27.693Z,28.4
2017-10-09T01:36:27.475Z,28.4
2017-10-09T01:37:27.558Z,28.4
2017-10-09T01:38:27.656Z,28.4
2017-10-09T01:39:27.943Z,28.4
2017-10-09T01:40:28.271Z,28.4
2017-10-09T01:41:27.787Z,28.4
2017-10-09T01:42:27.820Z,28.4
2017-10-09T01:43:27.915Z,28.4
2017-10-09T01:44:28.185Z,28.3
2017-10-09T01:45:28.182Z,28.4
2017-10-09T01:46:28.447Z,28.4
2017-10-09T01:47:28.293Z,28.4
2017-10-09T01:48:28.139Z,28.3
2017-10-09T01:49:28.407Z,28.3
2017-10-09T01:50:28.390Z,28.3
2017-10-09T01:51:28.482Z,28.3
2017-10-09T01:52:28.624Z,28.3
2017-10-09T01:53:28.659Z,28.3
2017-10-09T01:54:28.672Z,28.3
2017-10-09T01:55:28.518Z,28.3
2017-10-09T01:56:28.769Z,28.3
2017-10-09T01:57:28.879Z,28.3
2017-10-09T01:58:29.144Z,28.4
2017-10-09T01:59:28.775Z,28.3
2017-10-09T02:00:34.211Z,28.3
2017-10-09T02:01:29.054Z,28.3
2017-10-09T02:02:28.870Z,28.3
2017-10-09T02:03:28.959Z,28.3
2017-10-09T02:04:29.391Z,28.3
2017-10-09T02:05:29.123Z,28.3
2017-10-09T02:06:28.915Z,28.3
2017-10-09T02:07:29.191Z,28.3
2017-10-09T02:08:29.018Z,28.3
2017-10-09T02:09:29.257Z,28.3
2017-10-09T02:10:29.529Z,28.3
2017-10-09T02:11:29.091Z,28.3
2017-10-09T02:12:29.274Z,28.3
2017-10-09T02:13:29.310Z,28.3
2017-10-09T02:14:29.353Z,28.3
2017-10-09T02:15:29.737Z,28.3
2017-10-09T02:16:29.746Z,28.3
2017-10-09T02:17:29.707Z,28.3
2017-10-09T02:18:29.774Z,28.3
2017-10-09T02:19:29.558Z,28.3
2017-10-09T02:20:29.678Z,28.3
2017-10-09T02:21:29.896Z,28.3
2017-10-09T02:22:30.032Z,28.3
2017-10-09T02:23:29.894Z,28.3
2017-10-09T02:24:29.935Z,28.3
2017-10-09T02:25:30.170Z,28.3
2017-10-09T02:26:30.065Z,28.3
2017-10-09T02:27:30.170Z,28.3
2017-10-09T02:28:30.575Z,28.3
2017-10-09T02:29:30.422Z,28.3
2017-10-09T02:30:30.226Z,28.3
2017-10-09T02:31:30.471Z,28.3
2017-10-09T02:32:30.382Z,28.3
2017-10-09T02:33:30.654Z,28.3
2017-10-09T02:34:30.977Z,28.3
2017-10-09T02:35:30.802Z,28.3
2017-10-09T02:36:30.749Z,28.3
2017-10-09T02:37:30.744Z,28.3
2017-10-09T02:38:30.910Z,28.3
2017-10-09T02:39:30.934Z,28.3
2017-10-09T02:40:31.891Z,28.3
2017-10-09T02:41:31.244Z,28.3
2017-10-09T02:42:31.056Z,28.3
2017-10-09T02:43:31.258Z,28.3
2017-10-09T02:44:31.097Z,28.3
2017-10-09T02:45:31.349Z,28.3
2017-10-09T02:46:31.404Z,28.3
2017-10-09T02:47:31.208Z,28.3
2017-10-09T02:48:31.242Z,28.3
2017-10-09T02:49:31.299Z,28.3
2017-10-09T02:50:31.342Z,28.3
2017-10-09T02:51:31.589Z,28.3
2017-10-09T02:52:31.627Z,28.3
2017-10-09T02:53:31.452Z,28.3
2017-10-09T02:54:31.730Z,28.3
2017-10-09T02:55:31.533Z,28.3
2017-10-09T02:56:31.813Z,28.3
2017-10-09T02:57:31.864Z,28.3
2017-10-09T02:58:31.914Z,28.3
2017-10-09T02:59:31.922Z,28.3
2017-10-09T03:00:31.775Z,28.2
2017-10-09T03:01:36.923Z,28.2
2017-10-09T03:02:31.889Z,28.2
2017-10-09T03:03:31.998Z,28.2
2017-10-09T03:04:32.230Z,28.2
2017-10-09T03:05:32.165Z,28.3
2017-10-09T03:06:32.418Z,28.3
2017-10-09T03:07:32.408Z,28.3
2017-10-09T03:08:32.437Z,28.2
2017-10-09T03:09:32.411Z,28.2
2017-10-09T03:10:32.527Z,28.2
2017-10-09T03:11:32.568Z,28.2
2017-10-09T03:12:32.604Z,28.2
2017-10-09T03:13:32.836Z,28.2
2017-10-09T03:14:32.770Z,28.2
2017-10-09T03:15:32.843Z,28.2
2017-10-09T03:16:32.926Z,28.2
2017-10-09T03:17:33.163Z,28.2
2017-10-09T03:18:32.972Z,28.3
2017-10-09T03:19:33.089Z,28.3
2017-10-09T03:20:33.226Z,28.3
2017-10-09T03:21:33.215Z,28.3
2017-10-09T03:22:33.294Z,28.3
2017-10-09T03:23:33.424Z,28.3
2017-10-09T03:24:33.306Z,28.3
2017-10-09T03:25:33.372Z,28.3
2017-10-09T03:26:33.624Z,28.2
2017-10-09T03:27:33.639Z,28.3
2017-10-09T03:28:33.464Z,28.2
2017-10-09T03:29:33.693Z,28.2
2017-10-09T03:30:33.835Z,28.2
2017-10-09T03:31:33.641Z,28.2
2017-10-09T03:32:33.675Z,28.2
2017-10-09T03:33:34.007Z,28.2
2017-10-09T03:34:33.840Z,28.2
2017-10-09T03:35:33.988Z,28.2
2017-10-09T03:36:33.895Z,28.2
2017-10-09T03:37:34.137Z,28.2
2017-10-09T03:38:34.118Z,28.2
2017-10-09T03:39:34.039Z,28.2
2017-10-09T03:40:34.297Z,28.2
2017-10-09T03:41:34.363Z,28.2
2017-10-09T03:42:34.465Z,28.2
2017-10-09T03:43:34.479Z,28.2
2017-10-09T03:44:34.507Z,28.2
2017-10-09T03:45:34.559Z,28.2
2017-10-09T03:46:34.584Z,28.2
2017-10-09T03:47:34.394Z,28.2
2017-10-09T03:48:34.447Z,28.2
2017-10-09T03:49:34.696Z,28.2
2017-10-09T03:50:34.695Z,28.2
2017-10-09T03:51:34.468Z,28.2
2017-10-09T03:52:34.696Z,28.2
2017-10-09T03:53:34.821Z,28.2
2017-10-09T03:54:34.915Z,28.2
2017-10-09T03:55:34.981Z,28.2
2017-10-09T03:56:34.988Z,28.2
2017-10-09T03:57:34.802Z,28.2
2017-10-09T03:58:34.830Z,28.2
2017-10-09T03:59:34.906Z,28.2
2017-10-09T04:00:35.149Z,28.2
2017-10-09T04:01:35.144Z,28.2
2017-10-09T04:02:35.263Z,28.2
2017-10-09T04:03:35.267Z,28.2
2017-10-09T04:04:35.079Z,28.2
2017-10-09T04:05:35.314Z,28.1
2017-10-09T04:06:35.297Z,28.1
2017-10-09T04:07:35.155Z,28.2
2017-10-09T04:08:35.516Z,28.1
2017-10-09T04:09:35.530Z,28.2
2017-10-09T04:10:35.529Z,28.2
2017-10-09T04:11:35.606Z,28.2
2017-10-09T04:12:35.529Z,28.1
2017-10-09T04:13:35.762Z,28.1
2017-10-09T04:14:35.627Z,28.2
2017-10-09T04:15:35.814Z,28.1
2017-10-09T04:16:35.711Z,28.1
2017-10-09T04:17:35.744Z,28.1
2017-10-09T04:18:35.800Z,28.1
2017-10-09T04:19:35.828Z,28.1
2017-10-09T04:20:35.910Z,28.1
2017-10-09T04:21:35.944Z,28.1
2017-10-09T04:22:36.539Z,28.1
2017-10-09T04:23:36.253Z,28.1
2017-10-09T04:24:36.079Z,28.1
2017-10-09T04:25:36.085Z,28.1
2017-10-09T04:26:36.103Z,28.1
2017-10-09T04:27:36.135Z,28.1
2017-10-09T04:28:36.412Z,28.1
2017-10-09T04:29:36.461Z,28.1
2017-10-09T04:30:36.509Z,28.1
2017-10-09T04:31:36.362Z,27.9
2017-10-09T04:32:36.607Z,27.7
2017-10-09T04:33:36.785Z,27.5
2017-10-09T04:34:36.975Z,27.3
2017-10-09T04:35:36.530Z,27.1
2017-10-09T04:36:36.485Z,26.9
2017-10-09T04:37:36.749Z,26.7
2017-10-09T04:38:36.783Z,26.5
2017-10-09T04:39:36.680Z,26.3
2017-10-09T04:40:37.256Z,26.2
2017-10-09T04:41:36.979Z,26.1
2017-10-09T04:42:36.964Z,26
2017-10-09T04:43:37.029Z,25.9
2017-10-09T04:44:36.860Z,25.8
2017-10-09T04:45:36.895Z,25.7
2017-10-09T04:46:37.206Z,25.6
2017-10-09T04:47:36.973Z,25.5
2017-10-09T04:48:37.199Z,25.5
2017-10-09T04:49:37.110Z,25.4
2017-10-09T04:50:37.344Z,25.4
2017-10-09T04:51:37.442Z,25.3
2017-10-09T04:52:37.707Z,25.3
2017-10-09T04:53:37.532Z,25.3
2017-10-09T04:54:37.503Z,25.3
2017-10-09T04:55:37.404Z,25.3
2017-10-09T04:56:37.705Z,25.3
2017-10-09T04:57:37.726Z,25.3
2017-10-09T04:58:38.107Z,25.3
2017-10-09T04:59:37.834Z,25.3
2017-10-09T05:00:37.646Z,25.2
2017-10-09T05:01:37.724Z,25.2
2017-10-09T05:02:37.982Z,25.2
2017-10-09T05:03:37.824Z,25.2
2017-10-09T05:04:38.173Z,25.2
2017-10-09T05:05:38.576Z,25.2
2017-10-09T05:06:38.139Z,25.2
2017-10-09T05:07:38.010Z,25.2
2017-10-09T05:08:38.335Z,25.1
2017-10-09T05:09:38.172Z,25.2
2017-10-09T05:10:38.683Z,25.2
2017-10-09T05:11:38.325Z,25.2
2017-10-09T05:12:38.552Z,25.2
2017-10-09T05:13:38.656Z,25.2
2017-10-09T05:14:38.436Z,25.2
2017-10-09T05:15:38.561Z,25.2
2017-10-09T05:16:38.873Z,25.2
2017-10-09T05:17:38.637Z,25.2
2017-10-09T05:18:38.664Z,25.2
2017-10-09T05:19:38.699Z,25.2
2017-10-09T05:20:38.814Z,25.2
2017-10-09T05:21:39.021Z,25.2
2017-10-09T05:22:39.363Z,25.2
2017-10-09T05:23:39.072Z,25.2
2017-10-09T05:24:39.079Z,25.1
2017-10-09T05:25:38.903Z,25.1
2017-10-09T05:26:39.197Z,25.1
2017-10-09T05:27:39.198Z,25.1
2017-10-09T05:28:39.549Z,25.1
2017-10-09T05:29:39.128Z,25.1
2017-10-09T05:30:39.252Z,25.1
2017-10-09T05:31:39.209Z,25.1
2017-10-09T05:32:39.283Z,25.1
2017-10-09T05:33:39.371Z,25.1
2017-10-09T05:34:39.957Z,25.1
2017-10-09T05:35:39.850Z,25.1
2017-10-09T05:36:39.803Z,25.2
2017-10-09T05:37:39.673Z,25.1
2017-10-09T05:38:39.784Z,25.1
2017-10-09T05:39:39.935Z,25.1
2017-10-09T05:40:40.383Z,25.1
2017-10-09T05:41:40.153Z,25
2017-10-09T05:42:40.090Z,24.9
2017-10-09T05:43:40.348Z,24.9
2017-10-09T05:44:41.109Z,24.9
2017-10-09T05:45:40.062Z,24.9
2017-10-09T05:46:40.621Z,25
2017-10-09T05:47:40.399Z,24.9
2017-10-09T05:48:40.421Z,24.9
2017-10-09T05:49:40.499Z,24.9
2017-10-09T05:50:40.324Z,25
2017-10-09T05:51:40.601Z,24.9
2017-10-09T05:52:40.891Z,24.9
2017-10-09T05:53:40.532Z,24.9
2017-10-09T05:54:40.552Z,24.8
2017-10-09T05:55:41.017Z,24.8
2017-10-09T05:56:40.698Z,24.8
2017-10-09T05:57:40.656Z,24.7
2017-10-09T05:58:41.063Z,24.7
2017-10-09T05:59:40.940Z,24.7
2017-10-09T06:00:40.802Z,24.7
2017-10-09T06:01:41.125Z,24.7
2017-10-09T06:02:40.943Z,24.6
2017-10-09T06:03:41.155Z,24.6
2017-10-09T06:04:41.455Z,24.6
2017-10-09T06:05:41.104Z,24.5
2017-10-09T06:06:41.305Z,24.5
2017-10-09T06:07:41.229Z,24.5
2017-10-09T06:08:41.455Z,24.4
2017-10-09T06:09:41.588Z,24.4
2017-10-09T06:10:41.625Z,24.4
2017-10-09T06:11:41.429Z,24.4
2017-10-09T06:12:41.814Z,24.4
2017-10-09T06:13:41.943Z,24.4
2017-10-09T06:14:41.888Z,24.4
2017-10-09T06:15:41.645Z,24.4
2017-10-09T06:16:43.574Z,24.4
2017-10-09T06:17:43.142Z,24.4
2017-10-09T06:18:42.883Z,24.4
2017-10-09T06:19:42.021Z,24.3
2017-10-09T06:20:42.396Z,24.2
2017-10-09T06:21:42.346Z,24.1
2017-10-09T06:22:42.673Z,24.1
2017-10-09T06:23:42.759Z,24.1
2017-10-09T06:24:42.846Z,24.1
2017-10-09T06:25:43.001Z,24.2
2017-10-09T06:26:43.263Z,24.2
2017-10-09T06:27:43.239Z,24.3
2017-10-09T06:28:43.188Z,24.4
2017-10-09T06:29:43.262Z,24.5
2017-10-09T06:30:43.193Z,24.6
2017-10-09T06:31:42.595Z,24.7
2017-10-09T06:32:43.657Z,24.8
2017-10-09T06:33:42.856Z,24.9
2017-10-09T06:34:43.231Z,25
2017-10-09T06:35:43.129Z,25.1
2017-10-09T06:36:43.786Z,25.1
2017-10-09T06:37:43.093Z,25.3
2017-10-09T06:38:43.763Z,25.4
2017-10-09T06:39:43.885Z,25.4
2017-10-09T06:40:44.460Z,25.5
2017-10-09T06:41:43.429Z,25.6
2017-10-09T06:42:43.960Z,25.6
2017-10-09T06:43:44.173Z,25.7
2017-10-09T06:44:43.659Z,25.7
2017-10-09T06:45:43.686Z,25.8
2017-10-09T06:46:44.022Z,25.8
2017-10-09T06:47:43.918Z,25.9
2017-10-09T06:48:43.667Z,25.9
2017-10-09T06:49:44.438Z,26
2017-10-09T06:50:44.501Z,26
2017-10-09T06:51:43.653Z,26.1
2017-10-09T06:52:44.199Z,26.1
2017-10-09T06:53:44.711Z,26.1
2017-10-09T06:54:45.189Z,26.1
2017-10-09T06:55:44.401Z,26.2
2017-10-09T06:56:44.217Z,26.2
2017-10-09T06:57:44.113Z,26.3
2017-10-09T06:58:43.972Z,26.3
2017-10-09T06:59:43.959Z,26.3
2017-10-09T07:00:44.108Z,26.4
2017-10-09T07:01:44.182Z,26.4
2017-10-09T07:02:43.958Z,26.4
2017-10-09T07:03:44.035Z,26.4
2017-10-09T07:04:44.528Z,26.5
2017-10-09T07:05:44.356Z,26.5
2017-10-09T07:06:44.430Z,26.5
2017-10-09T07:07:44.243Z,26.5
2017-10-09T07:08:44.277Z,26.6
2017-10-09T07:09:44.450Z,26.6
2017-10-09T07:10:44.635Z,26.6
2017-10-09T07:11:44.365Z,26.7
2017-10-09T07:12:44.626Z,26.7
2017-10-09T07:13:44.671Z,26.7
2017-10-09T07:14:44.514Z,26.7
2017-10-09T07:15:44.480Z,26.7
2017-10-09T07:16:44.746Z,26.7
2017-10-09T07:17:44.758Z,26.8
2017-10-09T07:18:44.717Z,26.8
2017-10-09T07:19:44.833Z,26.8
2017-10-09T07:20:44.654Z,26.8
2017-10-09T07:21:44.879Z,26.9
2017-10-09T07:22:45.111Z,26.9
2017-10-09T07:23:44.862Z,26.9
2017-10-09T07:24:45.045Z,26.9
2017-10-09T07:25:45.085Z,27
2017-10-09T07:26:45.159Z,27
2017-10-09T07:27:45.315Z,27
2017-10-09T07:28:45.324Z,27
2017-10-09T07:29:45.432Z,27
2017-10-09T07:30:45.512Z,27
2017-10-09T07:31:45.550Z,27
2017-10-09T07:32:45.544Z,27
2017-10-09T07:33:45.713Z,27
2017-10-09T07:34:45.713Z,27.1
2017-10-09T07:35:45.702Z,27.1
2017-10-09T07:36:45.657Z,27.1
2017-10-09T07:37:45.636Z,27.1
2017-10-09T07:38:45.790Z,27.1
2017-10-09T07:39:46.008Z,27.2
2017-10-09T07:40:45.984Z,27.2
2017-10-09T07:41:46.104Z,27.2
2017-10-09T07:42:46.211Z,27.2
2017-10-09T07:43:46.217Z,27.2
2017-10-09T07:44:46.177Z,27.2
2017-10-09T07:45:46.318Z,27.3
2017-10-09T07:46:46.132Z,27.3
2017-10-09T07:47:46.155Z,27.3
2017-10-09T07:48:46.139Z,27.3
2017-10-09T07:49:46.157Z,27.3
2017-10-09T07:50:46.266Z,27.3
2017-10-09T07:51:46.345Z,27.3
2017-10-09T07:52:46.357Z,27.3
2017-10-09T07:53:46.592Z,27.4
2017-10-09T07:54:46.632Z,27.4
2017-10-09T07:55:46.710Z,27.4
2017-10-09T07:56:46.801Z,27.4
2017-10-09T07:57:46.900Z,27.4
2017-10-09T07:58:46.936Z,27.4
2017-10-09T07:59:46.932Z,27.4
2017-10-09T08:00:47.116Z,27.5
2017-10-09T08:01:47.011Z,27.5
2017-10-09T08:02:47.253Z,27.5
2017-10-09T08:03:47.297Z,27.5
2017-10-09T08:04:47.231Z,27.6
2017-10-09T08:05:47.508Z,27.6
2017-10-09T08:06:47.646Z,27.6
2017-10-09T08:07:48.175Z,27.7
2017-10-09T08:08:48.449Z,27.7
2017-10-09T08:09:48.595Z,27.7
2017-10-09T08:10:48.762Z,27.7
2017-10-09T08:11:48.907Z,27.7
2017-10-09T08:12:49.018Z,27.8
2017-10-09T08:13:48.813Z,27.7
2017-10-09T08:14:48.982Z,27.8
2017-10-09T08:15:48.934Z,27.8
2017-10-09T08:16:48.725Z,27.8
2017-10-09T08:17:47.864Z,27.8
2017-10-09T08:18:48.860Z,27.8
2017-10-09T08:19:49.153Z,27.8
2017-10-09T08:20:48.551Z,27.9
2017-10-09T08:21:48.740Z,27.9
2017-10-09T08:22:48.603Z,27.8
2017-10-09T08:23:48.143Z,27.9
2017-10-09T08:24:48.662Z,27.9
2017-10-09T08:25:48.793Z,27.9
2017-10-09T08:26:48.435Z,27.9
2017-10-09T08:27:48.588Z,27.9
2017-10-09T08:28:48.883Z,27.9
2017-10-09T08:29:48.738Z,28
2017-10-09T08:30:48.962Z,28
2017-10-09T08:31:49.348Z,28
2017-10-09T08:32:48.830Z,28
2017-10-09T08:33:49.471Z,28
2017-10-09T08:34:48.970Z,28.1
2017-10-09T08:35:48.883Z,28.1
2017-10-09T08:36:50.100Z,28.1
2017-10-09T08:37:49.486Z,28.1
2017-10-09T08:38:49.200Z,28.1
2017-10-09T08:39:48.983Z,28.1
2017-10-09T08:40:49.080Z,28.1
2017-10-09T08:41:49.385Z,28.2
2017-10-09T08:42:49.525Z,28.2
2017-10-09T08:43:49.192Z,28.2
2017-10-09T08:44:49.110Z,28.2
2017-10-09T08:45:49.275Z,28.2
2017-10-09T08:46:49.356Z,28.3
2017-10-09T08:47:49.594Z,28.3
2017-10-09T08:48:49.397Z,28.3
2017-10-09T08:49:49.498Z,28.3
2017-10-09T08:50:49.583Z,28.3
2017-10-09T08:51:50.993Z,28.3
2017-10-09T08:52:50.401Z,28.3
2017-10-09T08:53:51.954Z,28.4
2017-10-09T08:54:49.882Z,28.4
2017-10-09T08:55:49.860Z,28.4
2017-10-09T08:56:49.696Z,28.4
2017-10-09T08:57:49.934Z,28.4
2017-10-09T08:58:49.957Z,28.4
2017-10-09T08:59:49.957Z,28.4
2017-10-09T09:00:50.087Z,28.4
2017-10-09T09:01:50.024Z,28.4
2017-10-09T09:02:50.082Z,28.5
2017-10-09T09:03:50.891Z,28.5
2017-10-09T09:04:50.399Z,28.5
2017-10-09T09:05:50.163Z,28.6
2017-10-09T09:06:50.401Z,28.7
2017-10-09T09:07:51.203Z,28.6
2017-10-09T09:08:50.483Z,28.6
2017-10-09T09:09:50.561Z,28.6
2017-10-09T09:10:50.775Z,28.6
2017-10-09T09:11:50.546Z,28.7
2017-10-09T09:12:50.686Z,28.6
2017-10-09T09:13:50.952Z,28.6
2017-10-09T09:14:50.778Z,28.6
2017-10-09T09:15:50.660Z,28.6
2017-10-09T09:16:50.571Z,28.6
2017-10-09T09:17:50.792Z,28.6
2017-10-09T09:18:50.817Z,28.6
2017-10-09T09:19:50.869Z,28.6
2017-10-09T09:20:50.851Z,28.6
2017-10-09T09:21:50.697Z,28.6
2017-10-09T09:22:50.678Z,28.6
2017-10-09T09:23:51.038Z,28.6
2017-10-09T09:24:51.225Z,28.6
2017-10-09T09:25:50.808Z,28.6
2017-10-09T09:26:51.100Z,28.6
2017-10-09T09:27:51.126Z,28.6
2017-10-09T09:28:51.620Z,28.6
2017-10-09T09:29:51.002Z,28.6
2017-10-09T09:30:51.599Z,28.6
2017-10-09T09:31:51.249Z,28.6
2017-10-09T09:32:51.353Z,28.6
2017-10-09T09:33:51.455Z,28.6
2017-10-09T09:34:51.244Z,28.7
2017-10-09T09:35:51.324Z,28.6
2017-10-09T09:36:52.025Z,28.7
2017-10-09T09:37:51.429Z,28.6
2017-10-09T09:38:51.641Z,28.6
2017-10-09T09:39:51.669Z,28.6
2017-10-09T09:40:52.106Z,28.6
2017-10-09T09:41:51.661Z,28.7
2017-10-09T09:42:51.742Z,28.7
2017-10-09T09:43:51.875Z,28.7
2017-10-09T09:44:51.893Z,28.7
2017-10-09T09:45:52.090Z,28.7
2017-10-09T09:46:52.125Z,28.7
2017-10-09T09:47:52.185Z,28.7
2017-10-09T09:48:52.031Z,28.7
2017-10-09T09:49:52.316Z,28.6
2017-10-09T09:50:52.117Z,28.6
2017-10-09T09:51:52.129Z,28.6
2017-10-09T09:52:52.205Z,28.6
2017-10-09T09:53:52.293Z,28.6
2017-10-09T09:54:52.435Z,28.6
2017-10-09T09:55:52.556Z,28.6
2017-10-09T09:56:52.566Z,28.6
2017-10-09T09:57:52.712Z,28.6
2017-10-09T09:58:52.512Z,28.6
2017-10-09T09:59:52.526Z,28.6
2017-10-09T10:00:52.679Z,28.7
2017-10-09T10:01:52.497Z,28.7
2017-10-09T10:02:52.745Z,28.7
2017-10-09T10:03:52.870Z,28.7
2017-10-09T10:04:52.923Z,28.7
2017-10-09T10:05:52.979Z,28.7
2017-10-09T10:06:52.804Z,28.7
2017-10-09T10:07:52.832Z,28.7
2017-10-09T10:08:53.324Z,28.7
2017-10-09T10:09:53.077Z,28.7
2017-10-09T10:10:53.247Z,28.7
2017-10-09T10:11:53.102Z,28.7
2017-10-09T10:12:53.139Z,28.7
2017-10-09T10:13:53.265Z,28.7
2017-10-09T10:14:53.080Z,28.8
2017-10-09T10:15:53.443Z,28.8
2017-10-09T10:16:53.197Z,28.8
2017-10-09T10:17:53.439Z,28.8
2017-10-09T10:18:53.410Z,28.8
2017-10-09T10:19:53.300Z,28.8
2017-10-09T10:20:53.510Z,28.9
2017-10-09T10:21:53.726Z,28.9
2017-10-09T10:22:53.628Z,28.9
2017-10-09T10:23:53.888Z,28.9
2017-10-09T10:24:54.053Z,28.9
2017-10-09T10:25:53.735Z,28.9
2017-10-09T10:26:53.773Z,28.9
2017-10-09T10:27:53.596Z,28.9
2017-10-09T10:28:53.702Z,28.9
2017-10-09T10:29:53.824Z,28.9
2017-10-09T10:30:54.003Z,28.9
2017-10-09T10:31:53.983Z,28.9
2017-10-09T10:32:54.006Z,28.9
2017-10-09T10:33:54.055Z,28.9
2017-10-09T10:34:54.065Z,28.9
2017-10-09T10:35:53.943Z,28.9
2017-10-09T10:36:53.999Z,28.9
2017-10-09T10:37:54.069Z,28.9
2017-10-09T10:38:54.389Z,28.9
2017-10-09T10:39:54.419Z,28.9
2017-10-09T10:40:54.475Z,28.9
2017-10-09T10:41:54.648Z,28.9
2017-10-09T10:42:54.587Z,28.9
2017-10-09T10:43:54.692Z,28.9
2017-10-09T10:44:54.778Z,28.9
2017-10-09T10:45:54.914Z,28.9
2017-10-09T10:46:54.989Z,28.9
2017-10-09T10:47:54.910Z,29
2017-10-09T10:48:55.096Z,29
2017-10-09T10:49:55.470Z,29
2017-10-09T10:50:55.730Z,29.1
2017-10-09T10:51:55.227Z,29.2
2017-10-09T10:52:55.599Z,29.2
2017-10-09T10:53:55.482Z,29.3
2017-10-09T10:54:55.540Z,29.3
2017-10-09T10:55:55.589Z,29.4
2017-10-09T10:56:56.082Z,29.4
2017-10-09T10:57:55.492Z,29.5
2017-10-09T10:58:55.844Z,29.5
2017-10-09T10:59:55.320Z,29.5
2017-10-09T11:00:55.406Z,29.5
2017-10-09T11:01:55.418Z,29.6
2017-10-09T11:02:55.490Z,29.6
2017-10-09T11:03:55.561Z,29.6
2017-10-09T11:04:55.898Z,29.6
2017-10-09T11:05:55.855Z,29.6
2017-10-09T11:06:56.012Z,29.7
2017-10-09T11:07:56.420Z,29.7
2017-10-09T11:08:56.504Z,29.7
2017-10-09T11:09:56.009Z,29.7
2017-10-09T11:10:56.384Z,29.7
2017-10-09T11:11:56.143Z,29.7
2017-10-09T11:12:56.494Z,29.7
2017-10-09T11:13:56.671Z,29.7
2017-10-09T11:14:56.246Z,29.7
2017-10-09T11:15:58.000Z,29.8
2017-10-09T11:16:57.665Z,29.7
2017-10-09T11:17:56.966Z,29.8
2017-10-09T11:18:57.312Z,29.8
2017-10-09T11:19:56.429Z,29.8
2017-10-09T11:20:56.445Z,29.8
2017-10-09T11:21:56.470Z,29.8
2017-10-09T11:22:56.809Z,29.8
2017-10-09T11:23:56.932Z,29.8
2017-10-09T11:24:56.798Z,29.8
2017-10-09T11:25:56.828Z,29.8
2017-10-09T11:26:57.111Z,29.9
2017-10-09T11:27:57.238Z,29.9
2017-10-09T11:28:57.007Z,29.9
2017-10-09T11:29:56.940Z,29.9
2017-10-09T11:30:57.159Z,29.9
2017-10-09T11:31:57.031Z,29.8
2017-10-09T11:32:57.118Z,30
2017-10-09T11:33:57.195Z,30
2017-10-09T11:34:57.418Z,30
2017-10-09T11:35:57.566Z,30
2017-10-09T11:36:57.599Z,30
2017-10-09T11:37:57.681Z,30
2017-10-09T11:38:57.499Z,30
2017-10-09T11:39:57.558Z,30
2017-10-09T11:40:57.817Z,30
2017-10-09T11:41:57.720Z,30.1
2017-10-09T11:42:57.758Z,30
2017-10-09T11:43:57.878Z,30
2017-10-09T11:44:58.133Z,30
2017-10-09T11:45:58.672Z,30
2017-10-09T11:46:58.064Z,30
2017-10-09T11:47:58.292Z,29.9
2017-10-09T11:48:58.103Z,29.9
2017-10-09T11:49:58.119Z,29.9
2017-10-09T11:50:58.331Z,29.9
2017-10-09T11:51:58.389Z,29.9
2017-10-09T11:52:58.477Z,29.9
2017-10-09T11:54:00.426Z,29.9
2017-10-09T11:55:00.309Z,29.9
2017-10-09T11:56:00.428Z,29.9
2017-10-09T11:57:01.060Z,29.9
2017-10-09T11:58:00.202Z,29.9
2017-10-09T11:59:00.067Z,29.9
2017-10-09T12:00:01.072Z,29.9
2017-10-09T12:01:00.344Z,29.9
2017-10-09T12:02:00.280Z,29.9
2017-10-09T12:03:00.930Z,29.9
2017-10-09T12:04:00.984Z,29.9
2017-10-09T12:04:59.679Z,29.9
2017-10-09T12:06:00.482Z,29.9
2017-10-09T12:06:59.907Z,29.9
2017-10-09T12:08:00.160Z,29.9
2017-10-09T12:09:00.762Z,29.9
2017-10-09T12:10:00.133Z,29.9
2017-10-09T12:10:58.946Z,29.9
2017-10-09T12:11:59.178Z,29.9
2017-10-09T12:12:59.304Z,30
2017-10-09T12:13:59.281Z,30
2017-10-09T12:14:59.370Z,30
2017-10-09T12:15:59.255Z,30
2017-10-09T12:16:59.674Z,30
2017-10-09T12:17:59.651Z,30
2017-10-09T12:18:59.583Z,30
2017-10-09T12:19:59.543Z,30
2017-10-09T12:20:59.712Z,30
2017-10-09T12:21:59.565Z,30
2017-10-09T12:22:59.984Z,30
2017-10-09T12:23:59.814Z,30
2017-10-09T12:24:59.829Z,30
2017-10-09T12:25:59.978Z,30
2017-10-09T12:26:59.727Z,30.1
2017-10-09T12:27:59.801Z,30.1
2017-10-09T12:29:00.023Z,30.1
2017-10-09T12:30:00.068Z,30.1
2017-10-09T12:30:59.956Z,30.1
2017-10-09T12:32:00.165Z,30.1
2017-10-09T12:33:00.224Z,30.1
2017-10-09T12:34:00.122Z,30.1
2017-10-09T12:35:00.247Z,30.1
2017-10-09T12:36:00.252Z,30.1
2017-10-09T12:37:00.215Z,30.1
2017-10-09T12:38:00.140Z,30.1
2017-10-09T12:39:00.214Z,30.1
2017-10-09T12:40:00.837Z,30.1
2017-10-09T12:41:00.712Z,30.2
2017-10-09T12:42:00.555Z,30.2
2017-10-09T12:43:01.756Z,30.2
2017-10-09T12:44:00.895Z,30.2
2017-10-09T12:45:00.881Z,30.2
2017-10-09T12:46:01.154Z,30.2
2017-10-09T12:47:01.180Z,30.2
2017-10-09T12:48:00.847Z,30.2
2017-10-09T12:49:00.782Z,30.2
2017-10-09T12:50:01.045Z,30.2
2017-10-09T12:51:00.950Z,30.2
2017-10-09T12:52:01.160Z,30.2
2017-10-09T12:53:01.156Z,30.2
2017-10-09T12:54:01.079Z,30.2
2017-10-09T12:55:01.258Z,30.2
2017-10-09T12:56:01.181Z,30.2
2017-10-09T12:57:01.237Z,30.1
2017-10-09T12:58:01.253Z,30.2
2017-10-09T12:59:01.355Z,30.2
2017-10-09T13:00:01.437Z,30.2
2017-10-09T13:01:01.788Z,30.2
2017-10-09T13:02:01.483Z,30.2
2017-10-09T13:03:01.418Z,30.2
2017-10-09T13:04:01.904Z,30.2
2017-10-09T13:05:01.639Z,30.2
2017-10-09T13:06:01.750Z,30.2
2017-10-09T13:07:01.976Z,30.3
2017-10-09T13:08:01.914Z,30.3
2017-10-09T13:09:01.932Z,30.3
2017-10-09T13:10:02.037Z,30.3
2017-10-09T13:11:01.786Z,30.3
2017-10-09T13:12:01.985Z,30.4
2017-10-09T13:13:02.446Z,30.4
2017-10-09T13:14:02.080Z,30.4
2017-10-09T13:15:01.882Z,30.4
2017-10-09T13:16:02.184Z,30.4
2017-10-09T13:17:02.229Z,30.4
2017-10-09T13:18:02.181Z,30.5
2017-10-09T13:19:02.406Z,30.5
2017-10-09T13:20:02.239Z,30.5
2017-10-09T13:21:02.518Z,30.5
2017-10-09T13:22:02.447Z,30.5